<?xml version="1.0" encoding="UTF-8" standalone="no" ?>
<gpx xmlns="http://www.topografix.com/GPX/1/1" xmlns:xsi="http://www.w3.org/2001/XMLSchema-instance" xsi:schemaLocation="http://www.topografix.com/GPX/1/1 http://www.topografix.com/GPX/1/1/gpx.xsd" version="1.1" creator="VisuGPX - https://www.visugpx.com">
  <metadata>
    <name>Carantec_Tour_Callot_14-23km</name>
    <desc><![CDATA[gnerando idor:8977980_9226405_9307629]]></desc>
  </metadata>
  <trk>
    <name><![CDATA[Carantec_Tour_Callot_20.6km-9226405]]></name>
    <extensions>
      <line xmlns="http://www.topografix.com/GPX/gpx_style/0/2">
        <color>00FF00</color>
        <width>4</width>
      </line>
    </extensions>
    <trkseg>
      <trkpt lat="48.65443" lon="-3.90242">
        <ele>13</ele>
        <time>2023-10-31T19:30:23Z</time>
      </trkpt>
      <trkpt lat="48.65502" lon="-3.90265">
        <ele>8</ele>
        <time>2023-10-31T19:31:44Z</time>
      </trkpt>
      <trkpt lat="48.65653" lon="-3.90431">
        <ele>5</ele>
        <time>2023-10-31T19:35:53Z</time>
      </trkpt>
      <trkpt lat="48.65854" lon="-3.90562">
        <ele>3</ele>
        <time>2023-10-31T19:40:45Z</time>
      </trkpt>
      <trkpt lat="48.6606" lon="-3.90618">
        <ele>5</ele>
        <time>2023-10-31T19:45:25Z</time>
      </trkpt>
      <trkpt lat="48.66192" lon="-3.90613">
        <ele>5</ele>
        <time>2023-10-31T19:48:21Z</time>
      </trkpt>
      <trkpt lat="48.66262" lon="-3.90575">
        <ele>7</ele>
        <time>2023-10-31T19:50:00Z</time>
      </trkpt>
      <trkpt lat="48.66298" lon="-3.90577">
        <ele>8</ele>
        <time>2023-10-31T19:50:48Z</time>
      </trkpt>
      <trkpt lat="48.66327" lon="-3.90566">
        <ele>9</ele>
        <time>2023-10-31T19:51:28Z</time>
      </trkpt>
      <trkpt lat="48.66432" lon="-3.90438">
        <ele>7</ele>
        <time>2023-10-31T19:54:28Z</time>
      </trkpt>
      <trkpt lat="48.66475" lon="-3.90343">
        <ele>8</ele>
        <time>2023-10-31T19:56:09Z</time>
      </trkpt>
      <trkpt lat="48.66493" lon="-3.90271">
        <ele>8</ele>
        <time>2023-10-31T19:57:17Z</time>
      </trkpt>
      <trkpt lat="48.6648" lon="-3.90142">
        <ele>8</ele>
        <time>2023-10-31T19:59:12Z</time>
      </trkpt>
      <trkpt lat="48.66525" lon="-3.90035">
        <ele>10</ele>
        <time>2023-10-31T20:01:04Z</time>
      </trkpt>
      <trkpt lat="48.66559" lon="-3.90084">
        <ele>18</ele>
        <time>2023-10-31T20:02:07Z</time>
      </trkpt>
      <trkpt lat="48.66583" lon="-3.90139">
        <ele>24</ele>
        <time>2023-10-31T20:03:05Z</time>
      </trkpt>
      <trkpt lat="48.66644" lon="-3.90214">
        <ele>29</ele>
        <time>2023-10-31T20:04:50Z</time>
      </trkpt>
      <trkpt lat="48.66668" lon="-3.90049">
        <ele>34</ele>
        <time>2023-10-31T20:07:19Z</time>
      </trkpt>
      <trkpt lat="48.66535" lon="-3.899">
        <ele>11</ele>
        <time>2023-10-31T20:10:59Z</time>
      </trkpt>
      <trkpt lat="48.66526" lon="-3.89858">
        <ele>8</ele>
        <time>2023-10-31T20:11:38Z</time>
      </trkpt>
      <trkpt lat="48.66546" lon="-3.89844">
        <ele>12</ele>
        <time>2023-10-31T20:12:08Z</time>
      </trkpt>
      <trkpt lat="48.6657" lon="-3.89784">
        <ele>12</ele>
        <time>2023-10-31T20:13:10Z</time>
      </trkpt>
      <trkpt lat="48.66591" lon="-3.89702">
        <ele>11</ele>
        <time>2023-10-31T20:14:27Z</time>
      </trkpt>
      <trkpt lat="48.66608" lon="-3.89652">
        <ele>11</ele>
        <time>2023-10-31T20:15:17Z</time>
      </trkpt>
      <trkpt lat="48.66622" lon="-3.89655">
        <ele>15</ele>
        <time>2023-10-31T20:15:36Z</time>
      </trkpt>
      <trkpt lat="48.66652" lon="-3.89506">
        <ele>12</ele>
        <time>2023-10-31T20:17:53Z</time>
      </trkpt>
      <trkpt lat="48.66666" lon="-3.89493">
        <ele>14</ele>
        <time>2023-10-31T20:18:15Z</time>
      </trkpt>
      <trkpt lat="48.66672" lon="-3.89419">
        <ele>15</ele>
        <time>2023-10-31T20:19:20Z</time>
      </trkpt>
      <trkpt lat="48.66665" lon="-3.89367">
        <ele>13</ele>
        <time>2023-10-31T20:20:07Z</time>
      </trkpt>
      <trkpt lat="48.66648" lon="-3.8933">
        <ele>10</ele>
        <time>2023-10-31T20:20:47Z</time>
      </trkpt>
      <trkpt lat="48.6665" lon="-3.89272">
        <ele>9</ele>
        <time>2023-10-31T20:21:38Z</time>
      </trkpt>
      <trkpt lat="48.66713" lon="-3.89101">
        <ele>12</ele>
        <time>2023-10-31T20:24:31Z</time>
      </trkpt>
      <trkpt lat="48.66747" lon="-3.89081">
        <ele>14</ele>
        <time>2023-10-31T20:25:19Z</time>
      </trkpt>
      <trkpt lat="48.66771" lon="-3.89044">
        <ele>12</ele>
        <time>2023-10-31T20:26:05Z</time>
      </trkpt>
      <trkpt lat="48.66833" lon="-3.89009">
        <ele>12</ele>
        <time>2023-10-31T20:27:33Z</time>
      </trkpt>
      <trkpt lat="48.66888" lon="-3.89015">
        <ele>10</ele>
        <time>2023-10-31T20:28:47Z</time>
      </trkpt>
      <trkpt lat="48.6692" lon="-3.89071">
        <ele>23</ele>
        <time>2023-10-31T20:29:52Z</time>
      </trkpt>
      <trkpt lat="48.6696" lon="-3.89073">
        <ele>19</ele>
        <time>2023-10-31T20:30:46Z</time>
      </trkpt>
      <trkpt lat="48.67002" lon="-3.89055">
        <ele>12</ele>
        <time>2023-10-31T20:31:44Z</time>
      </trkpt>
      <trkpt lat="48.67025" lon="-3.8908">
        <ele>14</ele>
        <time>2023-10-31T20:32:22Z</time>
      </trkpt>
      <trkpt lat="48.67041" lon="-3.89055">
        <ele>10</ele>
        <time>2023-10-31T20:32:52Z</time>
      </trkpt>
      <trkpt lat="48.67091" lon="-3.89077">
        <ele>9</ele>
        <time>2023-10-31T20:34:02Z</time>
      </trkpt>
      <trkpt lat="48.67099" lon="-3.89188">
        <ele>15</ele>
        <time>2023-10-31T20:35:40Z</time>
      </trkpt>
      <trkpt lat="48.67088" lon="-3.89261">
        <ele>18</ele>
        <time>2023-10-31T20:36:46Z</time>
      </trkpt>
      <trkpt lat="48.67101" lon="-3.89382">
        <ele>22</ele>
        <time>2023-10-31T20:38:34Z</time>
      </trkpt>
      <trkpt lat="48.67144" lon="-3.89461">
        <ele>11</ele>
        <time>2023-10-31T20:40:04Z</time>
      </trkpt>
      <trkpt lat="48.6715" lon="-3.89513">
        <ele>13</ele>
        <time>2023-10-31T20:40:51Z</time>
      </trkpt>
      <trkpt lat="48.67144" lon="-3.89582">
        <ele>21</ele>
        <time>2023-10-31T20:41:52Z</time>
      </trkpt>
      <trkpt lat="48.67154" lon="-3.89629">
        <ele>24</ele>
        <time>2023-10-31T20:42:36Z</time>
      </trkpt>
      <trkpt lat="48.67175" lon="-3.89641">
        <ele>20</ele>
        <time>2023-10-31T20:43:06Z</time>
      </trkpt>
      <trkpt lat="48.6719" lon="-3.89705">
        <ele>22</ele>
        <time>2023-10-31T20:44:06Z</time>
      </trkpt>
      <trkpt lat="48.67203" lon="-3.89735">
        <ele>21</ele>
        <time>2023-10-31T20:44:37Z</time>
      </trkpt>
      <trkpt lat="48.67233" lon="-3.89755">
        <ele>15</ele>
        <time>2023-10-31T20:45:21Z</time>
      </trkpt>
      <trkpt lat="48.6722" lon="-3.89837">
        <ele>15</ele>
        <time>2023-10-31T20:46:35Z</time>
      </trkpt>
      <trkpt lat="48.67182" lon="-3.89862">
        <ele>12</ele>
        <time>2023-10-31T20:47:31Z</time>
      </trkpt>
      <trkpt lat="48.67133" lon="-3.89849">
        <ele>14</ele>
        <time>2023-10-31T20:48:37Z</time>
      </trkpt>
      <trkpt lat="48.67113" lon="-3.8988">
        <ele>10</ele>
        <time>2023-10-31T20:49:15Z</time>
      </trkpt>
      <trkpt lat="48.67086" lon="-3.89911">
        <ele>7</ele>
        <time>2023-10-31T20:50:00Z</time>
      </trkpt>
      <trkpt lat="48.67059" lon="-3.89993">
        <ele>6</ele>
        <time>2023-10-31T20:51:21Z</time>
      </trkpt>
      <trkpt lat="48.67026" lon="-3.90181">
        <ele>14</ele>
        <time>2023-10-31T20:54:13Z</time>
      </trkpt>
      <trkpt lat="48.67042" lon="-3.90252">
        <ele>13</ele>
        <time>2023-10-31T20:55:19Z</time>
      </trkpt>
      <trkpt lat="48.67036" lon="-3.90349">
        <ele>12</ele>
        <time>2023-10-31T20:56:45Z</time>
      </trkpt>
      <trkpt lat="48.67005" lon="-3.90376">
        <ele>16</ele>
        <time>2023-10-31T20:57:32Z</time>
      </trkpt>
      <trkpt lat="48.66997" lon="-3.90431">
        <ele>13</ele>
        <time>2023-10-31T20:58:22Z</time>
      </trkpt>
      <trkpt lat="48.66999" lon="-3.90575">
        <ele>11</ele>
        <time>2023-10-31T21:00:29Z</time>
      </trkpt>
      <trkpt lat="48.6692" lon="-3.90747">
        <ele>4</ele>
        <time>2023-10-31T21:03:33Z</time>
      </trkpt>
      <trkpt lat="48.66942" lon="-3.90993">
        <ele>7</ele>
        <time>2023-10-31T21:07:12Z</time>
      </trkpt>
      <trkpt lat="48.67003" lon="-3.91167">
        <ele>15</ele>
        <time>2023-10-31T21:10:06Z</time>
      </trkpt>
      <trkpt lat="48.67044" lon="-3.9119">
        <ele>17</ele>
        <time>2023-10-31T21:11:04Z</time>
      </trkpt>
      <trkpt lat="48.67111" lon="-3.91214">
        <ele>17</ele>
        <time>2023-10-31T21:12:36Z</time>
      </trkpt>
      <trkpt lat="48.67163" lon="-3.91266">
        <ele>22</ele>
        <time>2023-10-31T21:13:59Z</time>
      </trkpt>
      <trkpt lat="48.67209" lon="-3.91231">
        <ele>14</ele>
        <time>2023-10-31T21:15:08Z</time>
      </trkpt>
      <trkpt lat="48.6724" lon="-3.91218">
        <ele>11</ele>
        <time>2023-10-31T21:15:51Z</time>
      </trkpt>
      <trkpt lat="48.67325" lon="-3.91317">
        <ele>10</ele>
        <time>2023-10-31T21:18:14Z</time>
      </trkpt>
      <trkpt lat="48.67353" lon="-3.91365">
        <ele>9</ele>
        <time>2023-10-31T21:19:10Z</time>
      </trkpt>
      <trkpt lat="48.67356" lon="-3.91449">
        <ele>10</ele>
        <time>2023-10-31T21:20:24Z</time>
      </trkpt>
      <trkpt lat="48.67317" lon="-3.91497">
        <ele>15</ele>
        <time>2023-10-31T21:21:32Z</time>
      </trkpt>
      <trkpt lat="48.67316" lon="-3.91561">
        <ele>12</ele>
        <time>2023-10-31T21:22:28Z</time>
      </trkpt>
      <trkpt lat="48.67289" lon="-3.91621">
        <ele>18</ele>
        <time>2023-10-31T21:23:32Z</time>
      </trkpt>
      <trkpt lat="48.67301" lon="-3.91665">
        <ele>14</ele>
        <time>2023-10-31T21:24:14Z</time>
      </trkpt>
      <trkpt lat="48.67282" lon="-3.91739">
        <ele>18</ele>
        <time>2023-10-31T21:25:24Z</time>
      </trkpt>
      <trkpt lat="48.67337" lon="-3.91774">
        <ele>12</ele>
        <time>2023-10-31T21:26:43Z</time>
      </trkpt>
      <trkpt lat="48.67362" lon="-3.91889">
        <ele>12</ele>
        <time>2023-10-31T21:28:30Z</time>
      </trkpt>
      <trkpt lat="48.67546" lon="-3.92175">
        <ele>5</ele>
        <time>2023-10-31T21:34:22Z</time>
      </trkpt>
      <trkpt lat="48.6743" lon="-3.92301">
        <ele>6</ele>
        <time>2023-10-31T21:37:33Z</time>
      </trkpt>
      <trkpt lat="48.6747" lon="-3.92481">
        <ele>1</ele>
        <time>2023-10-31T21:40:20Z</time>
      </trkpt>
      <trkpt lat="48.68354" lon="-3.92249">
        <ele>5</ele>
        <time>2023-10-31T22:00:17Z</time>
      </trkpt>
      <trkpt lat="48.68654" lon="-3.92283">
        <ele>5</ele>
        <time>2023-10-31T22:06:59Z</time>
      </trkpt>
      <trkpt lat="48.6883" lon="-3.92189">
        <ele>8</ele>
        <time>2023-10-31T22:11:08Z</time>
      </trkpt>
      <trkpt lat="48.6896" lon="-3.92455">
        <ele>4</ele>
        <time>2023-10-31T22:15:59Z</time>
      </trkpt>
      <trkpt lat="48.69056" lon="-3.92575">
        <ele>8</ele>
        <time>2023-10-31T22:18:45Z</time>
      </trkpt>
      <trkpt lat="48.69255" lon="-3.92421">
        <ele>18</ele>
        <time>2023-10-31T22:23:43Z</time>
      </trkpt>
      <trkpt lat="48.69521" lon="-3.92567">
        <ele>6</ele>
        <time>2023-10-31T22:30:01Z</time>
      </trkpt>
      <trkpt lat="48.69714" lon="-3.9255">
        <ele>8</ele>
        <time>2023-10-31T22:34:19Z</time>
      </trkpt>
      <trkpt lat="48.69731" lon="-3.92318">
        <ele>5</ele>
        <time>2023-10-31T22:37:45Z</time>
      </trkpt>
      <trkpt lat="48.69929" lon="-3.92532">
        <ele>3</ele>
        <time>2023-10-31T22:43:09Z</time>
      </trkpt>
      <trkpt lat="48.69776" lon="-3.92713">
        <ele>3</ele>
        <time>2023-10-31T22:47:28Z</time>
      </trkpt>
      <trkpt lat="48.69698" lon="-3.92524">
        <ele>8</ele>
        <time>2023-10-31T22:50:45Z</time>
      </trkpt>
      <trkpt lat="48.69541" lon="-3.92556">
        <ele>6</ele>
        <time>2023-10-31T22:54:16Z</time>
      </trkpt>
      <trkpt lat="48.69392" lon="-3.92541">
        <ele>9</ele>
        <time>2023-10-31T22:57:35Z</time>
      </trkpt>
      <trkpt lat="48.69255" lon="-3.92444">
        <ele>17</ele>
        <time>2023-10-31T23:00:57Z</time>
      </trkpt>
      <trkpt lat="48.69156" lon="-3.92459">
        <ele>16</ele>
        <time>2023-10-31T23:03:10Z</time>
      </trkpt>
      <trkpt lat="48.69065" lon="-3.92605">
        <ele>8</ele>
        <time>2023-10-31T23:06:07Z</time>
      </trkpt>
      <trkpt lat="48.68937" lon="-3.925">
        <ele>6</ele>
        <time>2023-10-31T23:09:21Z</time>
      </trkpt>
      <trkpt lat="48.68784" lon="-3.92588">
        <ele>5</ele>
        <time>2023-10-31T23:12:59Z</time>
      </trkpt>
      <trkpt lat="48.68678" lon="-3.92509">
        <ele>8</ele>
        <time>2023-10-31T23:15:37Z</time>
      </trkpt>
      <trkpt lat="48.68535" lon="-3.92365">
        <ele>4</ele>
        <time>2023-10-31T23:19:26Z</time>
      </trkpt>
      <trkpt lat="48.68369" lon="-3.92223">
        <ele>6</ele>
        <time>2023-10-31T23:23:41Z</time>
      </trkpt>
      <trkpt lat="48.68087" lon="-3.92369">
        <ele>5</ele>
        <time>2023-10-31T23:30:18Z</time>
      </trkpt>
      <trkpt lat="48.6746" lon="-3.92475">
        <ele>1</ele>
        <time>2023-10-31T23:44:20Z</time>
      </trkpt>
      <trkpt lat="48.67435" lon="-3.92449">
        <ele>1</ele>
        <time>2023-10-31T23:45:01Z</time>
      </trkpt>
      <trkpt lat="48.67429" lon="-3.92394">
        <ele>2</ele>
        <time>2023-10-31T23:45:50Z</time>
      </trkpt>
      <trkpt lat="48.67321" lon="-3.92308">
        <ele>5</ele>
        <time>2023-10-31T23:48:33Z</time>
      </trkpt>
      <trkpt lat="48.6732" lon="-3.92279">
        <ele>7</ele>
        <time>2023-10-31T23:48:58Z</time>
      </trkpt>
      <trkpt lat="48.67182" lon="-3.92264">
        <ele>8</ele>
        <time>2023-10-31T23:52:03Z</time>
      </trkpt>
      <trkpt lat="48.67051" lon="-3.92336">
        <ele>6</ele>
        <time>2023-10-31T23:55:09Z</time>
      </trkpt>
      <trkpt lat="48.66835" lon="-3.92499">
        <ele>7</ele>
        <time>2023-11-01T00:00:31Z</time>
      </trkpt>
      <trkpt lat="48.66733" lon="-3.92527">
        <ele>8</ele>
        <time>2023-11-01T00:02:49Z</time>
      </trkpt>
      <trkpt lat="48.66614" lon="-3.92675">
        <ele>4</ele>
        <time>2023-11-01T00:06:15Z</time>
      </trkpt>
      <trkpt lat="48.66349" lon="-3.92814">
        <ele>2</ele>
        <time>2023-11-01T00:12:29Z</time>
      </trkpt>
      <trkpt lat="48.6612" lon="-3.92785">
        <ele>5</ele>
        <time>2023-11-01T00:17:36Z</time>
      </trkpt>
      <trkpt lat="48.65782" lon="-3.9303">
        <ele>4</ele>
        <time>2023-11-01T00:25:56Z</time>
      </trkpt>
      <trkpt lat="48.65658" lon="-3.93629">
        <ele>6</ele>
        <time>2023-11-01T00:35:09Z</time>
      </trkpt>
      <trkpt lat="48.65568" lon="-3.93835">
        <ele>10</ele>
        <time>2023-11-01T00:38:47Z</time>
      </trkpt>
      <trkpt lat="48.6542" lon="-3.9394">
        <ele>15</ele>
        <time>2023-11-01T00:42:25Z</time>
      </trkpt>
      <trkpt lat="48.65377" lon="-3.94077">
        <ele>18</ele>
        <time>2023-11-01T00:44:39Z</time>
      </trkpt>
      <trkpt lat="48.65067" lon="-3.94149">
        <ele>39</ele>
        <time>2023-11-01T00:51:37Z</time>
      </trkpt>
      <trkpt lat="48.65114" lon="-3.93904">
        <ele>39</ele>
        <time>2023-11-01T00:55:22Z</time>
      </trkpt>
      <trkpt lat="48.64623" lon="-3.93534">
        <ele>37</ele>
        <time>2023-11-01T01:07:34Z</time>
      </trkpt>
      <trkpt lat="48.64557" lon="-3.93528">
        <ele>35</ele>
        <time>2023-11-01T01:09:02Z</time>
      </trkpt>
      <trkpt lat="48.6453" lon="-3.93194">
        <ele>39</ele>
        <time>2023-11-01T01:13:59Z</time>
      </trkpt>
      <trkpt lat="48.64372" lon="-3.92879">
        <ele>46</ele>
        <time>2023-11-01T01:19:48Z</time>
      </trkpt>
      <trkpt lat="48.64344" lon="-3.92709">
        <ele>51</ele>
        <time>2023-11-01T01:22:22Z</time>
      </trkpt>
      <trkpt lat="48.64366" lon="-3.92482">
        <ele>54</ele>
        <time>2023-11-01T01:25:44Z</time>
      </trkpt>
      <trkpt lat="48.6436" lon="-3.92348">
        <ele>56</ele>
        <time>2023-11-01T01:27:43Z</time>
      </trkpt>
      <trkpt lat="48.64392" lon="-3.92093">
        <ele>62</ele>
        <time>2023-11-01T01:31:32Z</time>
      </trkpt>
      <trkpt lat="48.64404" lon="-3.9195">
        <ele>65</ele>
        <time>2023-11-01T01:33:39Z</time>
      </trkpt>
      <trkpt lat="48.64367" lon="-3.91758">
        <ele>66</ele>
        <time>2023-11-01T01:36:35Z</time>
      </trkpt>
      <trkpt lat="48.64283" lon="-3.91639">
        <ele>65</ele>
        <time>2023-11-01T01:39:09Z</time>
      </trkpt>
      <trkpt lat="48.64241" lon="-3.9153">
        <ele>62</ele>
        <time>2023-11-01T01:41:00Z</time>
      </trkpt>
      <trkpt lat="48.6422" lon="-3.91339">
        <ele>55</ele>
        <time>2023-11-01T01:43:51Z</time>
      </trkpt>
      <trkpt lat="48.64573" lon="-3.91232">
        <ele>62</ele>
        <time>2023-11-01T01:51:51Z</time>
      </trkpt>
      <trkpt lat="48.64591" lon="-3.91168">
        <ele>60</ele>
        <time>2023-11-01T01:52:52Z</time>
      </trkpt>
      <trkpt lat="48.64726" lon="-3.91133">
        <ele>59</ele>
        <time>2023-11-01T01:55:55Z</time>
      </trkpt>
      <trkpt lat="48.64872" lon="-3.91059">
        <ele>55</ele>
        <time>2023-11-01T01:59:21Z</time>
      </trkpt>
      <trkpt lat="48.6512" lon="-3.90974">
        <ele>55</ele>
        <time>2023-11-01T02:05:00Z</time>
      </trkpt>
      <trkpt lat="48.65163" lon="-3.91055">
        <ele>54</ele>
        <time>2023-11-01T02:06:31Z</time>
      </trkpt>
      <trkpt lat="48.65197" lon="-3.9107">
        <ele>54</ele>
        <time>2023-11-01T02:07:19Z</time>
      </trkpt>
      <trkpt lat="48.65218" lon="-3.90986">
        <ele>58</ele>
        <time>2023-11-01T02:08:38Z</time>
      </trkpt>
      <trkpt lat="48.65236" lon="-3.90784">
        <ele>60</ele>
        <time>2023-11-01T02:11:38Z</time>
      </trkpt>
      <trkpt lat="48.65273" lon="-3.90709">
        <ele>60</ele>
        <time>2023-11-01T02:13:00Z</time>
      </trkpt>
      <trkpt lat="48.65312" lon="-3.90618">
        <ele>59</ele>
        <time>2023-11-01T02:14:36Z</time>
      </trkpt>
      <trkpt lat="48.6528" lon="-3.90529">
        <ele>60</ele>
        <time>2023-11-01T02:16:05Z</time>
      </trkpt>
      <trkpt lat="48.6531" lon="-3.90424">
        <ele>55</ele>
        <time>2023-11-01T02:17:46Z</time>
      </trkpt>
      <trkpt lat="48.65321" lon="-3.90321">
        <ele>37</ele>
        <time>2023-11-01T02:19:18Z</time>
      </trkpt>
      <trkpt lat="48.65367" lon="-3.90233">
        <ele>15</ele>
        <time>2023-11-01T02:20:57Z</time>
      </trkpt>
      <trkpt lat="48.65413" lon="-3.9023">
        <ele>13</ele>
        <time>2023-11-01T02:21:58Z</time>
      </trkpt>
      <trkpt lat="48.65439" lon="-3.90239">
        <ele>13</ele>
        <time>2023-11-01T02:22:34Z</time>
      </trkpt>
    </trkseg>
  </trk>
</gpx>